sensor_id;sensor_type;location;lat;lon;timestamp;pressure;altitude;pressure_sealevel;temperature;humidity
34103;BME280;20381;54.498;18.206;2023-07-30T00:00:51;98585.52;;;15.77;100.00
34103;BME280;20381;54.498;18.206;2023-07-30T00:03:39;98585.35;;;15.77;100.00
34103;BME280;20381;54.498;18.206;2023-07-30T00:06:08;98587.49;;;15.81;100.00
34103;BME280;20381;54.498;18.206;2023-07-30T00:08:38;98589.36;;;15.85;100.00
34103;BME280;20381;54.498;18.206;2023-07-30T00:11:07;98593.25;;;15.87;100.00
34103;BME280;20381;54.498;18.206;2023-07-30T00:13:36;98597.02;;;15.88;100.00
34103;BME280;20381;54.498;18.206;2023-07-30T00:16:05;98603.10;;;15.88;100.00
34103;BME280;20381;54.498;18.206;2023-07-30T00:18:34;98602.70;;;15.92;100.00
34103;BME280;20381;54.498;18.206;2023-07-30T00:21:03;98602.83;;;15.92;100.00
34103;BME280;20381;54.498;18.206;2023-07-30T00:23:32;98602.62;;;15.88;100.00
34103;BME280;20381;54.498;18.206;2023-07-30T00:26:01;98606.93;;;15.87;100.00
34103;BME280;20381;54.498;18.206;2023-07-30T00:28:30;98606.21;;;15.87;100.00
34103;BME280;20381;54.498;18.206;2023-07-30T00:30:59;98595.75;;;15.88;100.00
34103;BME280;20381;54.498;18.206;2023-07-30T00:33:28;98593.91;;;15.94;100.00
34103;BME280;20381;54.498;18.206;2023-07-30T00:35:57;98596.23;;;15.98;100.00
34103;BME280;20381;54.498;18.206;2023-07-30T00:38:26;98600.45;;;15.95;100.00
34103;BME280;20381;54.498;18.206;2023-07-30T00:40:56;98597.02;;;15.95;100.00
34103;BME280;20381;54.498;18.206;2023-07-30T00:43:25;98589.95;;;15.97;100.00
34103;BME280;20381;54.498;18.206;2023-07-30T00:45:54;98596.26;;;15.99;100.00
34103;BME280;20381;54.498;18.206;2023-07-30T00:48:24;98594.10;;;16.00;100.00
34103;BME280;20381;54.498;18.206;2023-07-30T00:50:53;98593.13;;;15.99;100.00
34103;BME280;20381;54.498;18.206;2023-07-30T00:53:24;98586.61;;;15.99;100.00
34103;BME280;20381;54.498;18.206;2023-07-30T00:55:55;98591.45;;;15.98;100.00
34103;BME280;20381;54.498;18.206;2023-07-30T00:58:27;98595.27;;;15.90;100.00
34103;BME280;20381;54.498;18.206;2023-07-30T01:00:56;98596.41;;;15.87;100.00
34103;BME280;20381;54.498;18.206;2023-07-30T01:03:25;98596.48;;;15.86;100.00
34103;BME280;20381;54.498;18.206;2023-07-30T01:05:55;98594.98;;;15.81;100.00
34103;BME280;20381;54.498;18.206;2023-07-30T01:08:25;98595.79;;;15.78;100.00
34103;BME280;20381;54.498;18.206;2023-07-30T01:10:54;98594.33;;;15.75;100.00
34103;BME280;20381;54.498;18.206;2023-07-30T01:13:24;98594.64;;;15.73;100.00
34103;BME280;20381;54.498;18.206;2023-07-30T01:15:54;98601.52;;;15.69;100.00
34103;BME280;20381;54.498;18.206;2023-07-30T01:18:23;98604.40;;;15.67;100.00
34103;BME280;20381;54.498;18.206;2023-07-30T01:20:53;98597.21;;;15.65;100.00
34103;BME280;20381;54.498;18.206;2023-07-30T01:23:22;98593.96;;;15.62;100.00
34103;BME280;20381;54.498;18.206;2023-07-30T01:26:11;98600.48;;;15.62;100.00
34103;BME280;20381;54.498;18.206;2023-07-30T01:28:46;98602.95;;;15.62;100.00
34103;BME280;20381;54.498;18.206;2023-07-30T01:31:23;98606.06;;;15.60;100.00
34103;BME280;20381;54.498;18.206;2023-07-30T01:33:56;98609.64;;;15.59;100.00
34103;BME280;20381;54.498;18.206;2023-07-30T01:36:26;98610.93;;;15.57;100.00
34103;BME280;20381;54.498;18.206;2023-07-30T01:38:56;98602.83;;;15.59;100.00
34103;BME280;20381;54.498;18.206;2023-07-30T01:41:26;98604.30;;;15.62;100.00
34103;BME280;20381;54.498;18.206;2023-07-30T01:43:55;98608.73;;;15.66;100.00
34103;BME280;20381;54.498;18.206;2023-07-30T01:46:24;98614.92;;;15.65;100.00
34103;BME280;20381;54.498;18.206;2023-07-30T01:48:53;98616.08;;;15.66;100.00
34103;BME280;20381;54.498;18.206;2023-07-30T01:51:23;98618.55;;;15.64;100.00
34103;BME280;20381;54.498;18.206;2023-07-30T01:53:51;98619.31;;;15.65;100.00
34103;BME280;20381;54.498;18.206;2023-07-30T01:56:26;98622.02;;;15.67;100.00
34103;BME280;20381;54.498;18.206;2023-07-30T01:58:55;98618.27;;;15.65;100.00
34103;BME280;20381;54.498;18.206;2023-07-30T02:01:27;98621.80;;;15.65;100.00
34103;BME280;20381;54.498;18.206;2023-07-30T02:04:05;98627.77;;;15.65;100.00
34103;BME280;20381;54.498;18.206;2023-07-30T02:06:34;98628.59;;;15.63;100.00
34103;BME280;20381;54.498;18.206;2023-07-30T02:09:03;98630.07;;;15.67;100.00
34103;BME280;20381;54.498;18.206;2023-07-30T02:11:53;98633.47;;;15.68;100.00
34103;BME280;20381;54.498;18.206;2023-07-30T02:14:22;98630.88;;;15.70;100.00
34103;BME280;20381;54.498;18.206;2023-07-30T02:16:51;98626.08;;;15.73;100.00
34103;BME280;20381;54.498;18.206;2023-07-30T02:19:20;98622.29;;;15.72;100.00
34103;BME280;20381;54.498;18.206;2023-07-30T02:21:52;98623.01;;;15.69;100.00
34103;BME280;20381;54.498;18.206;2023-07-30T02:24:21;98631.81;;;15.63;100.00
34103;BME280;20381;54.498;18.206;2023-07-30T02:26:50;98635.08;;;15.61;100.00
34103;BME280;20381;54.498;18.206;2023-07-30T02:29:19;98643.86;;;15.57;100.00
34103;BME280;20381;54.498;18.206;2023-07-30T02:31:48;98641.64;;;15.55;100.00
34103;BME280;20381;54.498;18.206;2023-07-30T02:34:24;98640.88;;;15.53;100.00
34103;BME280;20381;54.498;18.206;2023-07-30T02:36:56;98642.59;;;15.58;100.00
34103;BME280;20381;54.498;18.206;2023-07-30T02:39:25;98643.92;;;15.59;100.00
34103;BME280;20381;54.498;18.206;2023-07-30T02:41:55;98643.88;;;15.61;100.00
34103;BME280;20381;54.498;18.206;2023-07-30T02:44:24;98643.60;;;15.64;100.00
34103;BME280;20381;54.498;18.206;2023-07-30T02:46:53;98642.05;;;15.68;100.00
34103;BME280;20381;54.498;18.206;2023-07-30T02:49:22;98639.27;;;15.72;100.00
34103;BME280;20381;54.498;18.206;2023-07-30T02:51:54;98642.60;;;15.74;100.00
34103;BME280;20381;54.498;18.206;2023-07-30T02:54:23;98641.66;;;15.81;100.00
34103;BME280;20381;54.498;18.206;2023-07-30T02:56:52;98645.03;;;15.85;100.00
34103;BME280;20381;54.498;18.206;2023-07-30T02:59:21;98646.23;;;15.89;100.00
34103;BME280;20381;54.498;18.206;2023-07-30T03:01:50;98645.21;;;15.91;100.00
34103;BME280;20381;54.498;18.206;2023-07-30T03:04:22;98640.55;;;15.90;100.00
34103;BME280;20381;54.498;18.206;2023-07-30T03:06:51;98641.27;;;15.89;100.00
34103;BME280;20381;54.498;18.206;2023-07-30T03:09:20;98639.80;;;15.88;100.00
34103;BME280;20381;54.498;18.206;2023-07-30T03:11:50;98642.04;;;15.83;100.00
34103;BME280;20381;54.498;18.206;2023-07-30T03:14:19;98641.35;;;15.80;100.00
34103;BME280;20381;54.498;18.206;2023-07-30T03:16:51;98648.98;;;15.84;100.00
34103;BME280;20381;54.498;18.206;2023-07-30T03:19:23;98650.89;;;15.90;100.00
34103;BME280;20381;54.498;18.206;2023-07-30T03:21:52;98647.75;;;15.92;100.00
34103;BME280;20381;54.498;18.206;2023-07-30T03:24:20;98650.49;;;15.93;100.00
34103;BME280;20381;54.498;18.206;2023-07-30T03:26:50;98652.27;;;15.95;100.00
34103;BME280;20381;54.498;18.206;2023-07-30T03:29:19;98650.65;;;15.97;100.00
34103;BME280;20381;54.498;18.206;2023-07-30T03:31:48;98660.92;;;16.04;100.00
34103;BME280;20381;54.498;18.206;2023-07-30T03:34:17;98660.80;;;16.09;100.00
34103;BME280;20381;54.498;18.206;2023-07-30T03:36:46;98662.48;;;16.16;100.00
34103;BME280;20381;54.498;18.206;2023-07-30T03:39:15;98663.52;;;16.24;100.00
34103;BME280;20381;54.498;18.206;2023-07-30T03:41:44;98666.59;;;16.31;100.00
34103;BME280;20381;54.498;18.206;2023-07-30T03:44:13;98661.09;;;16.37;100.00
34103;BME280;20381;54.498;18.206;2023-07-30T03:46:43;98662.25;;;16.41;100.00
34103;BME280;20381;54.498;18.206;2023-07-30T03:49:13;98661.74;;;16.49;100.00
34103;BME280;20381;54.498;18.206;2023-07-30T03:51:42;98662.54;;;16.60;100.00
34103;BME280;20381;54.498;18.206;2023-07-30T03:54:11;98660.77;;;16.66;100.00
34103;BME280;20381;54.498;18.206;2023-07-30T03:56:43;98665.77;;;16.70;100.00
34103;BME280;20381;54.498;18.206;2023-07-30T03:59:12;98664.80;;;16.78;100.00
34103;BME280;20381;54.498;18.206;2023-07-30T04:01:41;98667.11;;;16.82;100.00
34103;BME280;20381;54.498;18.206;2023-07-30T04:04:10;98668.92;;;16.81;100.00
34103;BME280;20381;54.498;18.206;2023-07-30T04:06:39;98665.09;;;16.78;100.00
34103;BME280;20381;54.498;18.206;2023-07-30T04:09:09;98670.40;;;16.83;100.00
34103;BME280;20381;54.498;18.206;2023-07-30T04:11:38;98669.79;;;16.89;100.00
34103;BME280;20381;54.498;18.206;2023-07-30T04:14:07;98671.54;;;16.99;100.00
34103;BME280;20381;54.498;18.206;2023-07-30T04:16:37;98675.04;;;17.01;100.00
34103;BME280;20381;54.498;18.206;2023-07-30T04:19:06;98676.26;;;17.07;100.00
34103;BME280;20381;54.498;18.206;2023-07-30T04:21:35;98681.20;;;17.14;100.00
34103;BME280;20381;54.498;18.206;2023-07-30T04:24:05;98678.58;;;17.20;100.00
34103;BME280;20381;54.498;18.206;2023-07-30T04:26:34;98685.13;;;17.26;100.00
34103;BME280;20381;54.498;18.206;2023-07-30T04:29:03;98682.40;;;17.30;100.00
34103;BME280;20381;54.498;18.206;2023-07-30T04:31:32;98682.50;;;17.33;100.00
34103;BME280;20381;54.498;18.206;2023-07-30T04:34:01;98682.41;;;17.36;100.00
34103;BME280;20381;54.498;18.206;2023-07-30T04:36:31;98684.77;;;17.41;100.00
34103;BME280;20381;54.498;18.206;2023-07-30T04:39:00;98684.84;;;17.46;100.00
34103;BME280;20381;54.498;18.206;2023-07-30T04:41:29;98690.96;;;17.48;100.00
34103;BME280;20381;54.498;18.206;2023-07-30T04:44:01;98689.80;;;17.49;100.00
34103;BME280;20381;54.498;18.206;2023-07-30T04:46:29;98695.04;;;17.50;100.00
34103;BME280;20381;54.498;18.206;2023-07-30T04:49:02;98699.27;;;17.52;100.00
34103;BME280;20381;54.498;18.206;2023-07-30T04:51:32;98702.31;;;17.55;100.00
34103;BME280;20381;54.498;18.206;2023-07-30T04:54:01;98708.55;;;17.56;100.00
34103;BME280;20381;54.498;18.206;2023-07-30T04:56:30;98712.73;;;17.54;100.00
34103;BME280;20381;54.498;18.206;2023-07-30T04:59:00;98707.01;;;17.55;100.00
34103;BME280;20381;54.498;18.206;2023-07-30T05:01:29;98717.02;;;17.54;100.00
34103;BME280;20381;54.498;18.206;2023-07-30T05:03:59;98717.80;;;17.49;100.00
34103;BME280;20381;54.498;18.206;2023-07-30T05:06:29;98718.00;;;17.49;100.00
34103;BME280;20381;54.498;18.206;2023-07-30T05:08:58;98717.46;;;17.49;100.00
34103;BME280;20381;54.498;18.206;2023-07-30T05:11:27;98716.16;;;17.44;100.00
34103;BME280;20381;54.498;18.206;2023-07-30T05:13:59;98721.55;;;17.41;100.00
34103;BME280;20381;54.498;18.206;2023-07-30T05:16:28;98721.98;;;17.41;100.00
34103;BME280;20381;54.498;18.206;2023-07-30T05:18:57;98724.36;;;17.41;100.00
34103;BME280;20381;54.498;18.206;2023-07-30T05:21:26;98724.05;;;17.42;100.00
34103;BME280;20381;54.498;18.206;2023-07-30T05:23:56;98723.38;;;17.48;100.00
34103;BME280;20381;54.498;18.206;2023-07-30T05:26:25;98725.19;;;17.49;100.00
34103;BME280;20381;54.498;18.206;2023-07-30T05:28:55;98721.32;;;17.56;100.00
34103;BME280;20381;54.498;18.206;2023-07-30T05:31:24;98719.83;;;17.65;100.00
34103;BME280;20381;54.498;18.206;2023-07-30T05:33:53;98723.20;;;17.68;100.00
34103;BME280;20381;54.498;18.206;2023-07-30T05:36:22;98726.79;;;17.76;100.00
34103;BME280;20381;54.498;18.206;2023-07-30T05:38:54;98723.70;;;17.84;100.00
34103;BME280;20381;54.498;18.206;2023-07-30T05:41:23;98723.70;;;17.96;100.00
34103;BME280;20381;54.498;18.206;2023-07-30T05:43:52;98725.04;;;18.10;100.00
34103;BME280;20381;54.498;18.206;2023-07-30T05:46:21;98721.59;;;18.26;100.00
34103;BME280;20381;54.498;18.206;2023-07-30T05:48:50;98719.59;;;18.39;100.00
34103;BME280;20381;54.498;18.206;2023-07-30T05:51:19;98723.89;;;18.61;100.00
34103;BME280;20381;54.498;18.206;2023-07-30T05:53:48;98725.17;;;18.84;100.00
34103;BME280;20381;54.498;18.206;2023-07-30T05:56:17;98723.45;;;19.00;100.00
34103;BME280;20381;54.498;18.206;2023-07-30T05:58:47;98723.13;;;19.16;100.00
34103;BME280;20381;54.498;18.206;2023-07-30T06:01:16;98726.77;;;19.38;100.00
34103;BME280;20381;54.498;18.206;2023-07-30T06:03:45;98731.08;;;19.55;100.00
34103;BME280;20381;54.498;18.206;2023-07-30T06:06:15;98730.91;;;19.55;100.00
34103;BME280;20381;54.498;18.206;2023-07-30T06:08:44;98732.11;;;19.56;100.00
34103;BME280;20381;54.498;18.206;2023-07-30T06:11:13;98733.55;;;19.65;100.00
34103;BME280;20381;54.498;18.206;2023-07-30T06:13:42;98736.34;;;19.62;100.00
34103;BME280;20381;54.498;18.206;2023-07-30T06:16:11;98739.78;;;19.70;100.00
34103;BME280;20381;54.498;18.206;2023-07-30T06:18:40;98739.09;;;19.77;100.00
34103;BME280;20381;54.498;18.206;2023-07-30T06:21:10;98740.09;;;19.90;100.00
34103;BME280;20381;54.498;18.206;2023-07-30T06:23:39;98740.45;;;20.09;100.00
34103;BME280;20381;54.498;18.206;2023-07-30T06:26:08;98744.09;;;20.30;100.00
34103;BME280;20381;54.498;18.206;2023-07-30T06:28:37;98742.96;;;20.50;100.00
34103;BME280;20381;54.498;18.206;2023-07-30T06:31:06;98747.98;;;20.54;100.00
34103;BME280;20381;54.498;18.206;2023-07-30T06:33:36;98751.58;;;20.52;100.00
34103;BME280;20381;54.498;18.206;2023-07-30T06:36:07;98752.83;;;20.48;100.00
34103;BME280;20381;54.498;18.206;2023-07-30T06:38:36;98748.80;;;20.55;100.00
34103;BME280;20381;54.498;18.206;2023-07-30T06:41:06;98747.41;;;20.72;100.00
34103;BME280;20381;54.498;18.206;2023-07-30T06:43:36;98749.23;;;20.98;100.00
34103;BME280;20381;54.498;18.206;2023-07-30T06:46:06;98748.11;;;21.20;100.00
34103;BME280;20381;54.498;18.206;2023-07-30T06:48:35;98751.25;;;21.44;100.00
34103;BME280;20381;54.498;18.206;2023-07-30T06:51:10;98750.70;;;21.77;100.00
34103;BME280;20381;54.498;18.206;2023-07-30T06:53:41;98753.80;;;21.95;100.00
34103;BME280;20381;54.498;18.206;2023-07-30T06:56:10;98759.32;;;22.13;100.00
34103;BME280;20381;54.498;18.206;2023-07-30T06:58:39;98761.64;;;22.23;99.99
34103;BME280;20381;54.498;18.206;2023-07-30T07:01:17;98761.27;;;22.29;99.59
34103;BME280;20381;54.498;18.206;2023-07-30T07:03:47;98765.00;;;22.24;99.03
34103;BME280;20381;54.498;18.206;2023-07-30T07:06:16;98768.43;;;22.33;99.14
34103;BME280;20381;54.498;18.206;2023-07-30T07:08:45;98766.46;;;22.46;98.92
34103;BME280;20381;54.498;18.206;2023-07-30T07:11:14;98763.70;;;22.77;99.57
34103;BME280;20381;54.498;18.206;2023-07-30T07:13:43;98759.15;;;23.27;99.66
34103;BME280;20381;54.498;18.206;2023-07-30T07:16:13;98754.67;;;23.77;99.16
34103;BME280;20381;54.498;18.206;2023-07-30T07:18:43;98757.16;;;23.97;97.30
34103;BME280;20381;54.498;18.206;2023-07-30T07:21:12;98754.69;;;24.45;99.78
34103;BME280;20381;54.498;18.206;2023-07-30T07:23:42;98756.27;;;25.90;100.00
34103;BME280;20381;54.498;18.206;2023-07-30T07:26:12;98755.64;;;26.98;98.57
34103;BME280;20381;54.498;18.206;2023-07-30T07:28:40;98756.65;;;27.57;96.23
34103;BME280;20381;54.498;18.206;2023-07-30T07:31:12;98758.02;;;28.18;95.80
34103;BME280;20381;54.498;18.206;2023-07-30T07:33:41;98756.31;;;28.07;92.88
34103;BME280;20381;54.498;18.206;2023-07-30T07:36:10;98758.88;;;28.41;96.12
34103;BME280;20381;54.498;18.206;2023-07-30T07:38:39;98757.30;;;28.76;92.98
34103;BME280;20381;54.498;18.206;2023-07-30T07:41:14;98759.31;;;28.69;90.42
34103;BME280;20381;54.498;18.206;2023-07-30T07:43:46;98759.70;;;28.31;88.45
34103;BME280;20381;54.498;18.206;2023-07-30T07:46:15;98758.63;;;27.69;87.51
34103;BME280;20381;54.498;18.206;2023-07-30T07:48:45;98759.63;;;26.95;86.52
34103;BME280;20381;54.498;18.206;2023-07-30T07:51:14;98761.56;;;26.82;88.06
34103;BME280;20381;54.498;18.206;2023-07-30T07:53:43;98761.66;;;28.28;89.10
34103;BME280;20381;54.498;18.206;2023-07-30T07:56:12;98758.89;;;30.01;88.96
34103;BME280;20381;54.498;18.206;2023-07-30T07:58:41;98758.68;;;30.53;86.18
34103;BME280;20381;54.498;18.206;2023-07-30T08:01:11;98757.20;;;32.04;87.65
34103;BME280;20381;54.498;18.206;2023-07-30T08:03:40;98758.58;;;33.68;84.78
34103;BME280;20381;54.498;18.206;2023-07-30T08:06:09;98769.30;;;34.12;80.31
34103;BME280;20381;54.498;18.206;2023-07-30T08:08:38;98771.23;;;34.90;81.51
34103;BME280;20381;54.498;18.206;2023-07-30T08:11:14;98767.81;;;36.53;80.59
34103;BME280;20381;54.498;18.206;2023-07-30T08:13:44;98770.19;;;36.79;75.38
34103;BME280;20381;54.498;18.206;2023-07-30T08:16:14;98767.52;;;36.81;73.61
34103;BME280;20381;54.498;18.206;2023-07-30T08:18:43;98769.52;;;35.43;70.65
34103;BME280;20381;54.498;18.206;2023-07-30T08:21:13;98767.09;;;33.96;70.11
34103;BME280;20381;54.498;18.206;2023-07-30T08:23:42;98765.33;;;33.02;69.91
34103;BME280;20381;54.498;18.206;2023-07-30T08:26:12;98763.02;;;34.11;71.03
34103;BME280;20381;54.498;18.206;2023-07-30T08:28:41;98764.73;;;36.20;68.73
34103;BME280;20381;54.498;18.206;2023-07-30T08:31:10;98766.10;;;38.38;67.39
34103;BME280;20381;54.498;18.206;2023-07-30T08:33:41;98761.20;;;40.26;64.71
34103;BME280;20381;54.498;18.206;2023-07-30T08:36:12;98761.95;;;40.77;62.99
34103;BME280;20381;54.498;18.206;2023-07-30T08:38:42;98762.90;;;42.24;60.86
34103;BME280;20381;54.498;18.206;2023-07-30T08:41:11;98761.07;;;41.69;57.14
34103;BME280;20381;54.498;18.206;2023-07-30T08:43:43;98767.00;;;39.06;52.80
34103;BME280;20381;54.498;18.206;2023-07-30T08:46:13;98766.23;;;36.45;52.56
34103;BME280;20381;54.498;18.206;2023-07-30T08:48:48;98766.23;;;34.95;53.02
34103;BME280;20381;54.498;18.206;2023-07-30T08:51:19;98764.42;;;37.04;53.94
34103;BME280;20381;54.498;18.206;2023-07-30T08:53:48;98760.51;;;40.19;53.46
34103;BME280;20381;54.498;18.206;2023-07-30T08:56:19;98764.77;;;42.97;52.42
34103;BME280;20381;54.498;18.206;2023-07-30T08:58:50;98763.08;;;45.29;50.92
34103;BME280;20381;54.498;18.206;2023-07-30T09:01:22;98763.00;;;46.60;48.29
34103;BME280;20381;54.498;18.206;2023-07-30T09:03:57;98753.81;;;46.67;45.13
34103;BME280;20381;54.498;18.206;2023-07-30T09:06:30;98751.82;;;46.11;43.50
34103;BME280;20381;54.498;18.206;2023-07-30T09:09:02;98751.36;;;45.88;41.46
34103;BME280;20381;54.498;18.206;2023-07-30T09:11:34;98757.86;;;43.67;39.20
34103;BME280;20381;54.498;18.206;2023-07-30T09:14:07;98755.75;;;40.76;37.61
34103;BME280;20381;54.498;18.206;2023-07-30T09:16:47;98756.80;;;41.52;38.72
34103;BME280;20381;54.498;18.206;2023-07-30T09:19:19;98756.20;;;43.26;36.83
34103;BME280;20381;54.498;18.206;2023-07-30T09:21:48;98752.10;;;41.83;35.77
34103;BME280;20381;54.498;18.206;2023-07-30T09:24:21;98752.66;;;43.28;35.98
34103;BME280;20381;54.498;18.206;2023-07-30T09:26:51;98751.31;;;45.22;35.05
34103;BME280;20381;54.498;18.206;2023-07-30T09:29:26;98750.57;;;47.14;34.60
34103;BME280;20381;54.498;18.206;2023-07-30T09:31:56;98751.58;;;48.25;31.42
34103;BME280;20381;54.498;18.206;2023-07-30T09:34:33;98756.92;;;46.03;28.80
34103;BME280;20381;54.498;18.206;2023-07-30T09:37:02;98766.27;;;44.20;28.96
34103;BME280;20381;54.498;18.206;2023-07-30T09:39:32;98763.89;;;43.02;29.17
34103;BME280;20381;54.498;18.206;2023-07-30T09:42:04;98775.48;;;41.97;28.78
34103;BME280;20381;54.498;18.206;2023-07-30T09:44:37;98781.42;;;39.10;29.51
34103;BME280;20381;54.498;18.206;2023-07-30T09:47:13;98782.84;;;36.28;30.35
34103;BME280;20381;54.498;18.206;2023-07-30T09:49:45;98789.60;;;34.38;31.42
34103;BME280;20381;54.498;18.206;2023-07-30T09:52:24;98781.91;;;32.99;32.14
34103;BME280;20381;54.498;18.206;2023-07-30T09:54:53;98781.41;;;31.99;32.93
34103;BME280;20381;54.498;18.206;2023-07-30T09:57:24;98779.73;;;31.25;33.37
34103;BME280;20381;54.498;18.206;2023-07-30T09:59:55;98774.91;;;30.58;33.92
34103;BME280;20381;54.498;18.206;2023-07-30T10:02:28;98766.77;;;29.95;34.23
34103;BME280;20381;54.498;18.206;2023-07-30T10:05:00;98771.58;;;29.37;34.91
34103;BME280;20381;54.498;18.206;2023-07-30T10:07:33;98781.14;;;28.86;35.56
34103;BME280;20381;54.498;18.206;2023-07-30T10:10:04;98786.42;;;28.28;36.20
34103;BME280;20381;54.498;18.206;2023-07-30T10:12:35;98791.64;;;27.49;36.38
34103;BME280;20381;54.498;18.206;2023-07-30T10:15:07;98807.91;;;26.47;36.53
34103;BME280;20381;54.498;18.206;2023-07-30T10:31:54;98831.54;;;22.48;46.11
34103;BME280;20381;54.498;18.206;2023-07-30T10:34:43;98829.55;;;24.92;51.34
34103;BME280;20381;54.498;18.206;2023-07-30T10:37:20;98822.44;;;31.12;48.53
34103;BME280;20381;54.498;18.206;2023-07-30T10:39:49;98823.93;;;34.87;45.08
34103;BME280;20381;54.498;18.206;2023-07-30T10:42:18;98826.70;;;34.35;44.33
34103;BME280;20381;54.498;18.206;2023-07-30T10:46:06;98826.58;;;32.35;44.28
34103;BME280;20381;54.498;18.206;2023-07-30T10:48:38;98825.20;;;31.19;44.97
34103;BME280;20381;54.498;18.206;2023-07-30T10:51:18;98827.95;;;30.57;44.90
34103;BME280;20381;54.498;18.206;2023-07-30T10:54:11;98831.11;;;29.83;45.52
34103;BME280;20381;54.498;18.206;2023-07-30T10:57:05;98826.08;;;29.97;45.82
34103;BME280;20381;54.498;18.206;2023-07-30T10:59:34;98829.83;;;30.03;46.00
34103;BME280;20381;54.498;18.206;2023-07-30T11:02:05;98827.52;;;33.17;47.78
34103;BME280;20381;54.498;18.206;2023-07-30T11:04:36;98824.89;;;37.90;46.57
34103;BME280;20381;54.498;18.206;2023-07-30T11:07:05;98816.38;;;41.46;44.92
34103;BME280;20381;54.498;18.206;2023-07-30T11:09:34;98816.89;;;44.02;43.81
34103;BME280;20381;54.498;18.206;2023-07-30T11:12:03;98820.32;;;46.63;42.68
34103;BME280;20381;54.498;18.206;2023-07-30T11:14:32;98819.96;;;46.45;39.57
34103;BME280;20381;54.498;18.206;2023-07-30T11:17:01;98819.64;;;45.56;37.98
34103;BME280;20381;54.498;18.206;2023-07-30T11:19:31;98818.95;;;45.64;36.82
34103;BME280;20381;54.498;18.206;2023-07-30T11:22:02;98816.15;;;45.56;36.50
34103;BME280;20381;54.498;18.206;2023-07-30T11:25:24;98818.16;;;47.61;34.60
34103;BME280;20381;54.498;18.206;2023-07-30T11:27:58;98810.30;;;46.38;33.29
34103;BME280;20381;54.498;18.206;2023-07-30T11:30:27;98813.36;;;45.20;31.42
34103;BME280;20381;54.498;18.206;2023-07-30T11:32:57;98821.64;;;42.76;30.11
34103;BME280;20381;54.498;18.206;2023-07-30T11:35:26;98823.23;;;40.05;29.76
34103;BME280;20381;54.498;18.206;2023-07-30T11:38:06;98821.14;;;38.39;30.30
34103;BME280;20381;54.498;18.206;2023-07-30T11:40:36;98823.27;;;37.81;30.42
34103;BME280;20381;54.498;18.206;2023-07-30T11:43:06;98816.40;;;37.38;30.40
34103;BME280;20381;54.498;18.206;2023-07-30T11:45:38;98815.09;;;38.04;30.46
34103;BME280;20381;54.498;18.206;2023-07-30T11:48:09;98813.13;;;39.03;31.03
34103;BME280;20381;54.498;18.206;2023-07-30T11:50:47;98807.02;;;41.54;31.09
34103;BME280;20381;54.498;18.206;2023-07-30T11:53:18;98804.80;;;43.75;30.26
34103;BME280;20381;54.498;18.206;2023-07-30T11:55:48;98806.77;;;44.33;29.12
34103;BME280;20381;54.498;18.206;2023-07-30T11:58:17;98805.41;;;45.72;29.24
34103;BME280;20381;54.498;18.206;2023-07-30T12:00:46;98806.14;;;47.09;28.64
34103;BME280;20381;54.498;18.206;2023-07-30T12:03:15;98803.42;;;47.19;27.99
34103;BME280;20381;54.498;18.206;2023-07-30T12:05:44;98801.98;;;47.36;27.19
34103;BME280;20381;54.498;18.206;2023-07-30T12:08:16;98800.66;;;47.28;26.54
34103;BME280;20381;54.498;18.206;2023-07-30T12:10:47;98800.20;;;47.24;25.90
34103;BME280;20381;54.498;18.206;2023-07-30T12:13:19;98794.30;;;45.29;24.73
34103;BME280;20381;54.498;18.206;2023-07-30T12:15:55;98800.88;;;41.96;24.30
34103;BME280;20381;54.498;18.206;2023-07-30T12:18:25;98805.42;;;39.25;24.83
34103;BME280;20381;54.498;18.206;2023-07-30T12:20:55;98809.05;;;37.51;25.37
34103;BME280;20381;54.498;18.206;2023-07-30T12:23:24;98804.35;;;36.42;25.49
34103;BME280;20381;54.498;18.206;2023-07-30T12:25:53;98801.09;;;35.29;26.44
34103;BME280;20381;54.498;18.206;2023-07-30T12:28:22;98797.40;;;34.52;27.02
34103;BME280;20381;54.498;18.206;2023-07-30T12:30:54;98798.84;;;33.92;27.67
34103;BME280;20381;54.498;18.206;2023-07-30T12:33:24;98801.47;;;33.52;28.12
34103;BME280;20381;54.498;18.206;2023-07-30T12:35:53;98799.48;;;32.96;28.57
34103;BME280;20381;54.498;18.206;2023-07-30T12:38:22;98799.95;;;32.58;29.37
34103;BME280;20381;54.498;18.206;2023-07-30T12:40:51;98803.81;;;32.08;29.22
34103;BME280;20381;54.498;18.206;2023-07-30T12:43:20;98805.00;;;31.51;30.03
34103;BME280;20381;54.498;18.206;2023-07-30T12:45:49;98800.96;;;31.11;30.79
34103;BME280;20381;54.498;18.206;2023-07-30T12:48:19;98795.42;;;30.63;30.76
34103;BME280;20381;54.498;18.206;2023-07-30T12:50:48;98790.94;;;30.04;31.53
34103;BME280;20381;54.498;18.206;2023-07-30T12:53:17;98789.42;;;29.66;31.93
34103;BME280;20381;54.498;18.206;2023-07-30T12:55:46;98786.95;;;29.11;32.66
34103;BME280;20381;54.498;18.206;2023-07-30T12:58:15;98789.33;;;28.58;33.29
34103;BME280;20381;54.498;18.206;2023-07-30T13:00:44;98788.25;;;28.17;33.91
34103;BME280;20381;54.498;18.206;2023-07-30T13:03:13;98788.56;;;27.95;34.42
34103;BME280;20381;54.498;18.206;2023-07-30T13:05:42;98785.33;;;27.68;34.49
34103;BME280;20381;54.498;18.206;2023-07-30T13:08:11;98780.40;;;27.31;34.90
34103;BME280;20381;54.498;18.206;2023-07-30T13:10:40;98777.77;;;26.95;35.52
34103;BME280;20381;54.498;18.206;2023-07-30T13:13:09;98783.69;;;26.75;35.95
34103;BME280;20381;54.498;18.206;2023-07-30T13:15:38;98786.86;;;26.74;36.66
34103;BME280;20381;54.498;18.206;2023-07-30T13:18:06;98786.19;;;26.87;36.64